Time;durP1;ratioP1;P1;durP2;ratioP2;P2;SDS_P1;SDS_P2;PMS_P1;PMS_P2;Temp;Humidity;BMP_temperature;BMP_pressure;BME280_temperature;BME280_humidity;BME280_pressure;Samples;Min_cycle;Max_cycle;Signal;HPM_P1;HPM_P2
2022/10/22 00:00:53;;;;;;;6.63;2.70;;;17.20;99.90;;;;;;5051667;28;20254;-31
2022/10/22 00:03:20;;;;;;;5.63;2.20;;;17.20;99.90;;;;;;5051698;28;20246;-31
2022/10/22 00:05:48;;;;;;;5.47;2.40;;;17.20;99.90;;;;;;5051567;28;20200;-31
2022/10/22 00:08:15;;;;;;;5.97;2.53;;;17.20;99.90;;;;;;5051426;28;20573;-31
2022/10/22 00:10:44;;;;;;;6.27;2.20;;;17.10;99.90;;;;;;5051368;28;20580;-31
2022/10/22 00:13:14;;;;;;;6.43;2.40;;;17.10;99.90;;;;;;5050184;28;20228;-31
2022/10/22 00:15:44;;;;;;;5.33;2.13;;;17.10;99.90;;;;;;5051249;28;20560;-31
2022/10/22 00:18:11;;;;;;;8.47;2.23;;;17.10;99.90;;;;;;5050949;28;20330;-32
2022/10/22 00:20:38;;;;;;;5.80;2.57;;;17.10;99.90;;;;;;5049801;28;20265;-32
2022/10/22 00:23:05;;;;;;;4.67;2.20;;;17.00;99.90;;;;;;5051130;28;20238;-31
2022/10/22 00:25:38;;;;;;;7.83;2.00;;;17.00;99.90;;;;;;5050854;28;20544;-32
2022/10/22 00:28:07;;;;;;;6.27;2.23;;;17.00;99.90;;;;;;5050752;28;20194;-31
2022/10/22 00:30:34;;;;;;;6.03;2.47;;;17.00;99.90;;;;;;5050888;28;20208;-32
2022/10/22 00:33:02;;;;;;;5.83;2.30;;;17.00;99.90;;;;;;5051023;28;20215;-32
2022/10/22 00:35:29;;;;;;;5.17;2.13;;;17.00;99.90;;;;;;5050947;28;20295;-32
2022/10/22 00:37:56;;;;;;;6.70;2.10;;;17.00;99.90;;;;;;5051045;28;20394;-33
2022/10/22 00:40:24;;;;;;;7.27;2.27;;;17.00;99.90;;;;;;5050719;28;20679;-31
2022/10/22 00:42:51;;;;;;;5.03;2.40;;;17.00;99.90;;;;;;5050623;28;20662;-32
2022/10/22 00:45:26;;;;;;;4.67;2.30;;;17.00;99.90;;;;;;5050416;28;20224;-31
2022/10/22 00:48:01;;;;;;;5.27;2.10;;;17.00;99.90;;;;;;5049830;28;20360;-31
2022/10/22 00:50:37;;;;;;;5.77;1.90;;;17.00;99.90;;;;;;5050561;28;20286;-31
2022/10/22 00:53:18;;;;;;;4.90;2.30;;;17.00;99.90;;;;;;5050792;28;20192;-32
2022/10/22 00:55:49;;;;;;;9.30;2.43;;;17.00;99.90;;;;;;5050355;28;20204;-32
2022/10/22 00:58:17;;;;;;;5.23;2.13;;;17.00;99.90;;;;;;5050337;28;20208;-31
2022/10/22 01:00:44;;;;;;;7.33;2.23;;;17.00;99.90;;;;;;5050099;28;20208;-31
2022/10/22 01:03:12;;;;;;;5.00;1.97;;;17.00;99.90;;;;;;5050128;28;20204;-32
2022/10/22 01:05:58;;;;;;;8.37;2.00;;;17.00;99.90;;;;;;5050152;28;20224;-31
2022/10/22 01:08:32;;;;;;;5.73;2.37;;;17.00;99.90;;;;;;5049003;28;20216;-32
2022/10/22 01:11:24;;;;;;;4.47;2.13;;;16.90;99.90;;;;;;5050316;28;20200;-31
2022/10/22 01:14:08;;;;;;;6.43;2.40;;;16.90;99.90;;;;;;5050307;28;20239;-31
2022/10/22 01:17:06;;;;;;;7.63;2.50;;;16.90;99.90;;;;;;5049951;28;20196;-31
2022/10/22 01:20:07;;;;;;;6.67;2.03;;;16.90;99.90;;;;;;5049863;28;20228;-32
2022/10/22 01:22:42;;;;;;;3.33;1.57;;;16.90;99.90;;;;;;5050066;28;20303;-33
2022/10/22 01:25:29;;;;;;;6.30;2.40;;;17.00;99.90;;;;;;5049719;28;20220;-34
2022/10/22 01:28:12;;;;;;;4.53;1.93;;;17.00;99.90;;;;;;5049736;28;20189;-32
2022/10/22 01:30:41;;;;;;;4.57;1.97;;;17.00;99.90;;;;;;5049886;28;20206;-31
2022/10/22 01:33:11;;;;;;;4.63;1.80;;;17.00;99.90;;;;;;5049807;28;20202;-32
2022/10/22 01:35:42;;;;;;;4.47;1.80;;;17.00;99.90;;;;;;5049999;28;20730;-32
2022/10/22 01:38:17;;;;;;;8.40;2.57;;;17.00;99.90;;;;;;5050125;28;20181;-32
2022/10/22 01:40:46;;;;;;;4.73;1.73;;;17.00;99.90;;;;;;5049775;28;20188;-32
2022/10/22 01:43:14;;;;;;;5.40;2.00;;;17.00;99.90;;;;;;5049715;28;20196;-33
2022/10/22 01:45:46;;;;;;;6.13;1.80;;;17.00;99.90;;;;;;5049926;28;20235;-32
2022/10/22 01:48:19;;;;;;;4.70;2.00;;;17.00;99.90;;;;;;5049689;28;20275;-32
2022/10/22 01:51:02;;;;;;;4.37;1.83;;;17.00;99.90;;;;;;5049601;28;20297;-32
2022/10/22 01:53:47;;;;;;;4.83;1.70;;;17.00;99.90;;;;;;5049130;28;20197;-32
2022/10/22 01:56:39;;;;;;;5.03;2.00;;;17.00;99.90;;;;;;5049300;28;20180;-32
2022/10/22 01:59:43;;;;;;;6.67;2.13;;;17.00;99.90;;;;;;5049616;28;20493;-32
2022/10/22 02:02:28;;;;;;;3.90;1.90;;;17.00;99.90;;;;;;5050227;28;20220;-32
2022/10/22 02:05:21;;;;;;;4.60;1.83;;;17.00;99.90;;;;;;5049154;28;20698;-32
2022/10/22 02:08:00;;;;;;;4.87;2.03;;;17.00;99.90;;;;;;5050079;28;20208;-32
2022/10/22 02:10:29;;;;;;;5.00;1.73;;;17.00;99.90;;;;;;5048994;28;20303;-31
2022/10/22 02:12:58;;;;;;;3.93;1.53;;;17.00;99.90;;;;;;5048809;28;20206;-31
2022/10/22 02:15:28;;;;;;;4.70;1.60;;;17.00;99.90;;;;;;5048814;28;20207;-32
2022/10/22 02:17:59;;;;;;;6.47;1.90;;;17.00;99.90;;;;;;5048805;28;20306;-32
2022/10/22 02:20:29;;;;;;;5.03;2.13;;;17.00;99.90;;;;;;5047563;28;20207;-32
2022/10/22 02:22:58;;;;;;;6.07;1.93;;;17.00;99.90;;;;;;5047643;28;20204;-31
2022/10/22 02:25:31;;;;;;;4.33;1.87;;;17.00;99.90;;;;;;5048633;28;20220;-31
2022/10/22 02:28:28;;;;;;;4.53;1.67;;;17.00;99.90;;;;;;5048927;28;20200;-31
2022/10/22 02:31:02;;;;;;;5.77;2.17;;;17.00;99.90;;;;;;5048946;28;20193;-31
2022/10/22 02:33:38;;;;;;;6.37;1.80;;;17.00;99.90;;;;;;5048673;28;20191;-32
2022/10/22 02:36:09;;;;;;;5.70;2.07;;;17.00;99.90;;;;;;5048583;28;20192;-31
2022/10/22 02:38:38;;;;;;;7.97;2.47;;;17.00;99.90;;;;;;5048780;28;20614;-33
2022/10/22 02:41:05;;;;;;;4.87;2.03;;;17.00;99.90;;;;;;5048535;28;20598;-32
2022/10/22 02:43:43;;;;;;;6.27;1.80;;;17.00;99.90;;;;;;5047238;28;20196;-31
2022/10/22 02:46:10;;;;;;;5.47;1.90;;;17.00;99.90;;;;;;5048518;28;20262;-31
2022/10/22 02:48:37;;;;;;;4.97;1.87;;;17.00;99.90;;;;;;5048578;28;20196;-31
2022/10/22 02:51:08;;;;;;;7.30;1.83;;;17.10;99.90;;;;;;5048447;28;20205;-32
2022/10/22 02:53:35;;;;;;;8.20;2.10;;;17.10;99.90;;;;;;5048454;28;20205;-30
2022/10/22 02:56:03;;;;;;;7.30;2.07;;;17.10;99.90;;;;;;5048150;28;20204;-31
2022/10/22 02:58:30;;;;;;;4.83;1.80;;;17.10;99.90;;;;;;5046971;28;20203;-31
2022/10/22 03:00:57;;;;;;;6.27;1.97;;;17.10;99.90;;;;;;5048321;28;20211;-33
2022/10/22 03:03:24;;;;;;;5.30;1.90;;;17.10;99.90;;;;;;5048493;28;20269;-32
2022/10/22 03:05:51;;;;;;;6.20;2.00;;;17.10;99.90;;;;;;5048418;28;20812;-30
2022/10/22 03:08:19;;;;;;;5.87;1.97;;;17.00;99.90;;;;;;5048087;28;20253;-31
2022/10/22 03:10:46;;;;;;;7.57;2.23;;;17.00;99.90;;;;;;5048293;28;20290;-32
2022/10/22 03:13:16;;;;;;;5.00;1.97;;;17.00;99.90;;;;;;5048012;28;20615;-32
2022/10/22 03:15:48;;;;;;;4.43;1.83;;;17.00;99.90;;;;;;5048633;28;20209;-32
2022/10/22 03:18:15;;;;;;;4.87;2.33;;;17.00;99.90;;;;;;5030333;28;20232;-30
2022/10/22 03:20:47;;;;;;;5.67;2.00;;;17.00;99.90;;;;;;5052446;28;20223;-30
2022/10/22 03:23:18;;;;;;;11.40;2.30;;;17.00;99.90;;;;;;5052326;28;20311;-31
2022/10/22 03:25:48;;;;;;;8.87;2.43;;;17.00;99.90;;;;;;5052240;28;20306;-30
2022/10/22 03:28:17;;;;;;;3.00;1.80;;;17.00;99.90;;;;;;5052422;28;20243;-31
2022/10/22 03:30:44;;;;;;;5.03;2.77;;;17.00;99.90;;;;;;5052361;28;20698;-31
2022/10/22 03:33:16;;;;;;;6.07;1.93;;;16.90;99.90;;;;;;5052221;28;20239;-32
2022/10/22 03:35:45;;;;;;;5.23;2.10;;;16.90;99.90;;;;;;5052094;28;20663;-31
2022/10/22 03:38:13;;;;;;;5.17;1.70;;;16.90;99.90;;;;;;5051780;28;20212;-31
2022/10/22 03:40:42;;;;;;;4.40;1.80;;;16.90;99.90;;;;;;5051995;28;20208;-31
2022/10/22 03:43:12;;;;;;;4.70;1.60;;;16.90;99.90;;;;;;5051938;28;20216;-31
2022/10/22 03:45:39;;;;;;;6.13;2.43;;;16.90;99.90;;;;;;5051878;28;20605;-30
2022/10/22 03:48:06;;;;;;;4.97;1.87;;;16.90;99.90;;;;;;5051956;28;20203;-32
2022/10/22 03:50:33;;;;;;;6.40;2.17;;;16.80;99.90;;;;;;5050033;28;20201;-31
2022/10/22 03:53:01;;;;;;;8.53;2.37;;;16.80;99.90;;;;;;5051522;28;20212;-31
2022/10/22 03:55:30;;;;;;;6.13;1.80;;;16.80;99.90;;;;;;5050293;28;20208;-32
2022/10/22 03:57:57;;;;;;;7.17;2.00;;;16.80;99.90;;;;;;5051719;28;20795;-31
2022/10/22 04:00:27;;;;;;;8.10;2.13;;;16.80;99.90;;;;;;5051570;28;20299;-31
2022/10/22 04:02:54;;;;;;;6.63;2.87;;;16.80;99.90;;;;;;5051425;28;20220;-31
2022/10/22 04:05:24;;;;;;;4.67;1.47;;;16.80;99.90;;;;;;5049991;28;20218;-31
2022/10/22 04:07:51;;;;;;;6.47;2.00;;;16.80;99.90;;;;;;5051380;28;20219;-31
2022/10/22 04:10:19;;;;;;;6.47;2.10;;;16.80;99.90;;;;;;5051216;28;20204;-32
2022/10/22 04:12:47;;;;;;;6.20;2.10;;;16.80;99.90;;;;;;5051543;28;20611;-31
2022/10/22 04:15:15;;;;;;;5.93;1.60;;;16.90;99.90;;;;;;5051229;28;20718;-31
2022/10/22 04:17:42;;;;;;;6.33;2.03;;;16.90;99.90;;;;;;5051186;28;20200;-31
2022/10/22 04:20:10;;;;;;;6.23;1.90;;;16.90;99.90;;;;;;5051477;28;20622;-31
2022/10/22 04:22:37;;;;;;;6.40;1.83;;;16.90;99.90;;;;;;5066380;28;20297;-32
2022/10/22 04:25:07;;;;;;;4.67;2.00;;;16.90;99.90;;;;;;5049511;28;20252;-32
2022/10/22 04:27:35;;;;;;;4.97;1.80;;;16.90;99.90;;;;;;5049738;28;20557;-31
2022/10/22 04:30:05;;;;;;;7.07;1.97;;;16.90;99.90;;;;;;5050536;28;20200;-31
2022/10/22 04:32:32;;;;;;;5.50;1.60;;;16.90;99.90;;;;;;5051047;28;20254;-31
2022/10/22 04:34:59;;;;;;;4.97;2.00;;;16.90;99.90;;;;;;5049390;28;20666;-31
2022/10/22 04:37:27;;;;;;;3.17;1.60;;;17.00;99.90;;;;;;5051009;28;20223;-32
2022/10/22 04:39:56;;;;;;;8.83;2.10;;;17.00;99.90;;;;;;5050770;28;20208;-31
2022/10/22 04:42:27;;;;;;;4.87;1.93;;;17.00;99.90;;;;;;5050697;28;20219;-31
2022/10/22 04:44:54;;;;;;;6.57;1.50;;;17.00;99.90;;;;;;5050666;28;20307;-31
2022/10/22 04:47:21;;;;;;;6.43;1.90;;;17.00;99.90;;;;;;5050661;28;20555;-31
2022/10/22 04:49:50;;;;;;;8.77;1.80;;;17.00;99.90;;;;;;5050736;28;20250;-31
2022/10/22 04:52:17;;;;;;;4.90;1.50;;;16.90;99.90;;;;;;5050911;28;20209;-31
2022/10/22 04:54:47;;;;;;;11.00;2.37;;;16.90;99.90;;;;;;5050869;28;20212;-31
2022/10/22 04:57:17;;;;;;;5.87;1.73;;;16.90;99.90;;;;;;5050535;28;20218;-32
2022/10/22 04:59:44;;;;;;;5.17;1.90;;;16.90;99.90;;;;;;5050624;28;20565;-30
2022/10/22 05:02:11;;;;;;;7.97;1.57;;;16.90;99.90;;;;;;5050568;28;20319;-32
2022/10/22 05:04:38;;;;;;;5.83;1.80;;;16.80;99.90;;;;;;5050449;28;20295;-31
2022/10/22 05:07:05;;;;;;;3.30;1.30;;;16.80;99.90;;;;;;5051151;28;20202;-32
2022/10/22 05:09:33;;;;;;;7.20;2.53;;;16.80;99.90;;;;;;5050308;28;20623;-32
2022/10/22 05:12:00;;;;;;;7.43;1.60;;;16.80;99.90;;;;;;5050445;28;20955;-32
2022/10/22 05:14:27;;;;;;;7.40;1.50;;;16.80;99.90;;;;;;5050208;28;20192;-31
2022/10/22 05:16:54;;;;;;;9.53;1.67;;;16.80;99.90;;;;;;5050035;28;20196;-35
2022/10/22 05:19:26;;;;;;;7.90;1.77;;;16.80;99.90;;;;;;5049917;28;20248;-32
2022/10/22 05:21:57;;;;;;;3.80;1.50;;;16.80;99.90;;;;;;5049953;28;20675;-31
2022/10/22 05:24:26;;;;;;;5.00;1.53;;;16.80;99.90;;;;;;5049801;28;20203;-31
2022/10/22 05:26:55;;;;;;;5.93;1.50;;;16.80;99.90;;;;;;5049736;28;20235;-32
2022/10/22 05:29:22;;;;;;;4.97;1.30;;;16.80;99.90;;;;;;5049905;28;20196;-31
2022/10/22 05:31:49;;;;;;;7.03;1.57;;;16.80;99.90;;;;;;5049867;28;20290;-32
2022/10/22 05:34:17;;;;;;;4.90;1.63;;;16.80;99.90;;;;;;5049703;28;20593;-32
2022/10/22 05:36:44;;;;;;;4.73;1.60;;;16.80;99.90;;;;;;5049527;28;20706;-31
2022/10/22 05:39:12;;;;;;;4.47;1.40;;;16.80;99.90;;;;;;5049515;28;20266;-31
2022/10/22 05:41:39;;;;;;;3.97;1.53;;;16.90;99.90;;;;;;5048607;28;20639;-32
2022/10/22 05:44:06;;;;;;;7.43;1.50;;;16.80;99.90;;;;;;5049556;28;20200;-32
2022/10/22 05:46:35;;;;;;;6.20;1.40;;;16.90;99.90;;;;;;5049399;28;20220;-32
2022/10/22 05:49:06;;;;;;;4.70;1.43;;;16.90;99.90;;;;;;5049433;28;20184;-31
2022/10/22 05:51:36;;;;;;;4.87;1.20;;;16.90;99.90;;;;;;5049421;28;20224;-31
2022/10/22 05:54:06;;;;;;;4.97;1.33;;;16.90;99.90;;;;;;5049316;28;20200;-32
2022/10/22 05:56:35;;;;;;;5.80;1.70;;;16.90;99.90;;;;;;5048102;28;20210;-32
2022/10/22 05:59:03;;;;;;;10.87;2.03;;;16.90;99.90;;;;;;5049532;28;20204;-31
2022/10/22 06:01:33;;;;;;;5.17;1.60;;;16.90;99.90;;;;;;5049991;28;20211;-32
2022/10/22 06:04:04;;;;;;;8.50;1.63;;;16.90;99.90;;;;;;5049235;28;20220;-31
2022/10/22 06:06:43;;;;;;;7.33;1.70;;;17.00;99.90;;;;;;5031497;28;20216;-31
2022/10/22 06:09:16;;;;;;;6.53;1.53;;;16.90;99.90;;;;;;5049635;28;20202;-31
2022/10/22 06:11:45;;;;;;;6.30;1.63;;;17.00;99.90;;;;;;5049172;28;20184;-31
2022/10/22 06:14:13;;;;;;;6.17;1.47;;;17.00;99.90;;;;;;5049110;28;20762;-31
2022/10/22 06:16:45;;;;;;;8.80;1.50;;;17.00;99.90;;;;;;5049068;28;20295;-31
2022/10/22 06:19:14;;;;;;;4.93;1.40;;;17.00;99.90;;;;;;5048907;28;20228;-31
2022/10/22 06:21:42;;;;;;;7.27;1.53;;;17.00;99.90;;;;;;5047722;28;20220;-31
2022/10/22 06:24:09;;;;;;;7.57;1.50;;;17.00;99.90;;;;;;5048860;28;20294;-32
2022/10/22 06:26:37;;;;;;;3.47;1.40;;;17.00;99.90;;;;;;5048894;28;20223;-32
2022/10/22 06:29:04;;;;;;;7.60;2.10;;;17.00;99.90;;;;;;5047527;28;20287;-31
2022/10/22 06:31:37;;;;;;;7.00;1.60;;;17.10;99.90;;;;;;5049052;28;20216;-32
2022/10/22 06:34:06;;;;;;;7.97;2.10;;;17.10;99.90;;;;;;5048830;28;20214;-31
2022/10/22 06:36:36;;;;;;;5.40;1.50;;;17.10;99.90;;;;;;5047456;28;20294;-32
2022/10/22 06:39:04;;;;;;;8.73;1.77;;;17.10;99.90;;;;;;5049001;28;20212;-31
2022/10/22 06:41:31;;;;;;;7.60;1.80;;;17.10;99.90;;;;;;5048855;28;20701;-31
2022/10/22 06:44:01;;;;;;;6.70;1.97;;;17.10;99.90;;;;;;5047171;28;20281;-32
2022/10/22 06:46:30;;;;;;;13.33;2.20;;;17.10;99.90;;;;;;5048597;28;20760;-31
2022/10/22 06:49:00;;;;;;;10.93;1.80;;;17.10;99.90;;;;;;5048577;28;20208;-31
2022/10/22 06:51:28;;;;;;;10.20;1.80;;;17.20;99.90;;;;;;5048520;28;20576;-32
2022/10/22 06:53:57;;;;;;;5.47;1.90;;;17.20;99.90;;;;;;5048462;28;20204;-33
2022/10/22 06:56:26;;;;;;;7.13;1.70;;;17.10;99.90;;;;;;5048531;28;20200;-33
2022/10/22 06:58:57;;;;;;;12.57;1.80;;;17.20;99.90;;;;;;5048969;28;20205;-33
2022/10/22 07:01:30;;;;;;;9.10;2.13;;;17.20;99.90;;;;;;5048507;28;20291;-33
2022/10/22 07:03:58;;;;;;;5.33;1.37;;;17.20;99.90;;;;;;5048759;28;20215;-33
2022/10/22 07:06:26;;;;;;;10.27;2.13;;;17.20;99.90;;;;;;5046904;28;20331;-33
2022/10/22 07:08:58;;;;;;;8.90;1.57;;;17.30;99.90;;;;;;5047048;28;20714;-34
2022/10/22 07:11:29;;;;;;;7.90;1.80;;;17.30;99.90;;;;;;5048151;28;20220;-34
2022/10/22 07:13:58;;;;;;;6.40;1.50;;;17.30;99.90;;;;;;5048215;28;20238;-33
2022/10/22 07:16:25;;;;;;;3.63;1.30;;;17.30;99.90;;;;;;5046821;28;20344;-33
2022/10/22 07:18:59;;;;;;;3.17;1.13;;;17.40;99.90;;;;;;5046841;28;20243;-34
2022/10/22 07:21:31;;;;;;;7.80;1.43;;;17.40;99.90;;;;;;5048582;28;20192;-34
2022/10/22 07:23:59;;;;;;;9.90;1.80;;;17.40;99.90;;;;;;5046720;28;20214;-34
2022/10/22 07:26:29;;;;;;;7.35;1.75;;;17.40;99.90;;;;;;5046348;28;20224;-34
2022/10/22 07:29:00;;;;;;;4.83;1.07;;;17.40;99.90;;;;;;5048045;28;20187;-33
2022/10/22 07:31:27;;;;;;;12.43;1.63;;;17.50;99.90;;;;;;5046689;28;20749;-33
2022/10/22 07:33:55;;;;;;;4.90;1.40;;;17.50;99.90;;;;;;5047930;28;20210;-33
2022/10/22 07:36:22;;;;;;;8.00;1.40;;;17.50;99.90;;;;;;5047924;28;20213;-34
2022/10/22 07:38:55;;;;;;;6.83;1.53;;;17.60;99.90;;;;;;5047723;28;20212;-33
2022/10/22 07:41:22;;;;;;;7.53;2.43;;;17.60;99.90;;;;;;5046433;28;20743;-33
2022/10/22 07:43:50;;;;;;;5.77;1.77;;;17.60;99.90;;;;;;5048083;28;20226;-33
2022/10/22 07:46:18;;;;;;;7.63;1.30;;;17.60;99.90;;;;;;5047724;28;20227;-33
2022/10/22 07:48:46;;;;;;;7.43;1.60;;;17.60;99.90;;;;;;5046354;28;20196;-34
2022/10/22 07:51:13;;;;;;;4.53;1.40;;;17.60;99.90;;;;;;5047964;28;20204;-33
2022/10/22 07:53:40;;;;;;;8.20;1.37;;;17.60;99.90;;;;;;5047980;28;20249;-32
2022/10/22 07:56:08;;;;;;;11.23;1.70;;;17.70;99.90;;;;;;5046181;28;20204;-31
2022/10/22 07:58:35;;;;;;;11.87;1.90;;;17.70;99.90;;;;;;5047766;28;20204;-31
2022/10/22 08:01:06;;;;;;;11.13;2.20;;;17.70;99.90;;;;;;5046186;28;20704;-32
2022/10/22 08:03:33;;;;;;;11.03;2.07;;;17.80;99.90;;;;;;5029707;28;20201;-31
2022/10/22 08:06:01;;;;;;;7.97;1.50;;;17.80;99.90;;;;;;5050447;28;20216;-31
2022/10/22 08:08:29;;;;;;;7.90;1.80;;;17.80;99.90;;;;;;5051491;28;20291;-31
2022/10/22 08:10:59;;;;;;;7.77;1.57;;;17.90;99.90;;;;;;5051274;28;20202;-31
2022/10/22 08:13:29;;;;;;;6.47;1.77;;;17.90;99.90;;;;;;5051254;28;20200;-31
2022/10/22 08:15:58;;;;;;;5.53;1.00;;;17.90;99.90;;;;;;5051543;28;20202;-31
2022/10/22 08:18:26;;;;;;;4.90;1.30;;;18.00;99.90;;;;;;5049595;28;20232;-31
2022/10/22 08:20:54;;;;;;;9.10;1.57;;;18.00;99.90;;;;;;5051052;28;20234;-31
2022/10/22 08:23:24;;;;;;;6.13;1.30;;;18.00;99.90;;;;;;5051107;28;20588;-31
2022/10/22 08:25:58;;;;;;;4.17;1.13;;;18.10;99.90;;;;;;5051269;28;20702;-31
2022/10/22 08:28:27;;;;;;;7.77;1.47;;;18.10;99.90;;;;;;5051041;28;20693;-32
2022/10/22 08:30:55;;;;;;;7.70;1.50;;;18.20;99.90;;;;;;5050913;28;20287;-31
2022/10/22 08:33:24;;;;;;;6.07;1.50;;;18.20;99.90;;;;;;5050810;28;20294;-32
2022/10/22 08:35:52;;;;;;;5.47;1.10;;;18.20;99.90;;;;;;5050825;28;20706;-32
2022/10/22 08:38:19;;;;;;;8.10;1.43;;;18.30;99.90;;;;;;5050372;28;20662;-30
2022/10/22 08:41:11;;;;;;;7.67;1.60;;;18.30;99.90;;;;;;5050627;28;20744;-31
2022/10/22 08:43:56;;;;;;;5.70;1.37;;;18.40;99.90;;;;;;5050756;28;20261;-32
2022/10/22 08:46:42;;;;;;;6.33;1.10;;;18.40;99.90;;;;;;5050478;28;20769;-32
2022/10/22 08:49:20;;;;;;;6.20;1.37;;;18.40;99.90;;;;;;5050769;28;20683;-31
2022/10/22 08:51:47;;;;;;;4.50;1.60;;;18.40;99.90;;;;;;5050509;28;20215;-32
2022/10/22 08:54:41;;;;;;;6.80;1.70;;;18.50;99.90;;;;;;5050963;28;20226;-31
2022/10/22 08:57:08;;;;;;;5.03;1.80;;;18.50;99.90;;;;;;5050370;28;20613;-31
2022/10/22 08:59:41;;;;;;;9.90;1.50;;;18.50;99.90;;;;;;5049792;28;20303;-31
2022/10/22 09:02:37;;;;;;;10.57;1.60;;;18.50;99.90;;;;;;5049940;28;20212;-31
2022/10/22 09:05:16;;;;;;;7.10;1.80;;;18.60;99.90;;;;;;5050357;28;20598;-32
2022/10/22 09:07:49;;;;;;;7.53;1.77;;;18.60;99.90;;;;;;5050246;28;20696;-31
2022/10/22 09:10:20;;;;;;;6.22;1.67;;;18.60;99.90;;;;;;5048959;28;20189;-31
2022/10/22 09:12:48;;;;;;;7.00;1.47;;;18.60;99.90;;;;;;5050332;28;20262;-34
2022/10/22 09:15:20;;;;;;;10.13;1.67;;;18.70;99.90;;;;;;5050163;28;20291;-31
2022/10/22 09:18:22;;;;;;;7.87;1.87;;;18.70;99.90;;;;;;5050045;28;20217;-32
2022/10/22 09:20:58;;;;;;;6.38;1.40;;;18.70;99.90;;;;;;5067259;28;20215;-31
2022/10/22 09:23:51;;;;;;;6.33;1.47;;;18.80;99.90;;;;;;5048264;28;20234;-31
2022/10/22 09:26:18;;;;;;;8.50;1.77;;;18.80;99.90;;;;;;5050059;28;20310;-31
2022/10/22 09:28:49;;;;;;;5.03;1.30;;;18.80;99.90;;;;;;5049720;28;20679;-32
2022/10/22 09:31:16;;;;;;;5.47;1.40;;;18.80;99.90;;;;;;5049935;28;20192;-32
2022/10/22 09:33:47;;;;;;;7.63;1.90;;;18.80;99.90;;;;;;5050179;28;20202;-32
2022/10/22 09:36:16;;;;;;;8.40;1.40;;;18.90;99.90;;;;;;5049503;28;20200;-32
2022/10/22 09:38:47;;;;;;;4.80;1.43;;;18.90;99.90;;;;;;5049622;28;20695;-32
2022/10/22 09:41:16;;;;;;;8.47;1.40;;;18.90;99.90;;;;;;5049543;28;20437;-32
2022/10/22 09:43:46;;;;;;;7.20;1.60;;;18.90;99.90;;;;;;5049613;28;20240;-32
2022/10/22 09:46:17;;;;;;;5.32;1.23;;;19.00;99.90;;;;;;5049477;28;20216;-32
2022/10/22 09:48:54;;;;;;;6.85;1.13;;;19.00;99.90;;;;;;5049421;28;20659;-32
2022/10/22 09:51:34;;;;;;;4.80;1.58;;;19.10;99.90;;;;;;5049271;28;20577;-32
2022/10/22 09:54:15;;;;;;;4.82;1.40;;;19.10;99.90;;;;;;5049268;28;20223;-32
2022/10/22 09:56:49;;;;;;;6.50;1.30;;;19.10;99.90;;;;;;5048013;28;20211;-32
2022/10/22 09:59:18;;;;;;;6.35;1.92;;;19.20;99.90;;;;;;5049356;28;20191;-32
2022/10/22 10:01:45;;;;;;;5.50;1.27;;;19.20;99.90;;;;;;5049380;28;20223;-32
2022/10/22 10:04:15;;;;;;;8.17;1.60;;;19.10;99.90;;;;;;5064406;28;20204;-32
2022/10/22 10:06:45;;;;;;;6.90;1.90;;;19.20;99.90;;;;;;5047694;28;20212;-32
2022/10/22 10:09:16;;;;;;;6.00;1.43;;;19.30;99.90;;;;;;5048841;28;20199;-33
2022/10/22 10:12:21;;;;;;;2.90;1.20;;;19.30;99.90;;;;;;5049126;28;20204;-32
2022/10/22 10:15:11;;;;;;;7.33;1.50;;;19.30;99.90;;;;;;5086217;28;20199;-32
2022/10/22 10:17:43;;;;;;;7.40;1.67;;;19.30;99.90;;;;;;5049888;28;20224;-32
2022/10/22 10:20:28;;;;;;;4.30;1.17;;;19.30;99.90;;;;;;5048853;28;20188;-32
2022/10/22 10:23:13;;;;;;;5.77;1.60;;;19.30;99.90;;;;;;5048515;28;20699;-32
2022/10/22 10:25:53;;;;;;;5.50;1.40;;;19.30;99.90;;;;;;5048581;28;20212;-32
2022/10/22 10:28:43;;;;;;;10.03;2.07;;;19.30;99.90;;;;;;5063499;28;20220;-33
2022/10/22 10:31:32;;;;;;;5.22;1.65;;;19.40;99.90;;;;;;5047294;28;20236;-32
2022/10/22 10:34:37;;;;;;;6.33;1.60;;;19.40;99.90;;;;;;5064370;28;20690;-32
2022/10/22 10:37:29;;;;;;;4.53;1.52;;;19.40;99.90;;;;;;5048385;28;20208;-32
2022/10/22 10:40:21;;;;;;;3.35;1.33;;;19.50;99.90;;;;;;5048921;28;20211;-32
2022/10/22 10:43:09;;;;;;;7.07;1.33;;;19.50;99.90;;;;;;5048505;28;20200;-32
2022/10/22 10:46:10;;;;;;;4.77;1.90;;;19.60;99.90;;;;;;5048386;28;20284;-32
2022/10/22 10:48:46;;;;;;;8.57;1.83;;;19.60;99.90;;;;;;5063325;28;20192;-32
2022/10/22 10:51:24;;;;;;;4.07;1.23;;;19.60;99.90;;;;;;5048215;28;20294;-32
2022/10/22 10:54:26;;;;;;;4.82;1.48;;;19.70;99.90;;;;;;5048369;28;20683;-32
2022/10/22 10:57:01;;;;;;;3.88;1.25;;;19.80;99.90;;;;;;5048968;28;20216;-32
2022/10/22 10:59:35;;;;;;;3.53;1.35;;;19.80;99.90;;;;;;5048116;28;20204;-32
2022/10/22 11:02:11;;;;;;;5.63;1.42;;;19.80;99.90;;;;;;5048162;28;20295;-32
2022/10/22 11:04:59;;;;;;;6.77;1.33;;;19.80;99.90;;;;;;5047912;28;20196;-32
2022/10/22 11:07:45;;;;;;;7.43;1.43;;;19.80;99.90;;;;;;5047881;28;20262;-32
2022/10/22 11:10:30;;;;;;;6.10;1.27;;;19.80;99.90;;;;;;5048827;28;20602;-32
2022/10/22 11:13:39;;;;;;;6.03;1.70;;;19.90;99.90;;;;;;5047941;28;20192;-32
2022/10/22 11:16:24;;;;;;;4.33;1.37;;;19.90;99.90;;;;;;5047911;28;20196;-32
2022/10/22 11:19:03;;;;;;;5.90;2.13;;;20.00;99.90;;;;;;5047936;28;20714;-32
2022/10/22 11:21:59;;;;;;;8.07;2.00;;;20.00;99.90;;;;;;5048145;28;20192;-32
2022/10/22 11:24:38;;;;;;;9.90;1.77;;;20.00;99.90;;;;;;5055424;28;20209;-32
2022/10/22 11:27:24;;;;;;;8.40;1.73;;;20.00;99.90;;;;;;5063051;28;20224;-32
2022/10/22 11:30:00;;;;;;;11.18;2.28;;;20.00;99.90;;;;;;5046511;28;20242;-32
2022/10/22 11:32:32;;;;;;;6.65;1.40;;;20.10;99.90;;;;;;5047818;28;20214;-32
2022/10/22 11:35:03;;;;;;;6.10;1.30;;;20.10;99.90;;;;;;5047965;28;20184;-32
2022/10/22 11:37:33;;;;;;;6.47;1.50;;;20.10;99.90;;;;;;5047894;28;20203;-32
2022/10/22 11:40:13;;;;;;;4.18;1.25;;;20.20;99.90;;;;;;5049403;28;20250;-32
2022/10/22 11:42:57;;;;;;;6.67;1.60;;;20.20;99.90;;;;;;5052034;28;20314;-32
2022/10/22 11:45:24;;;;;;;6.75;1.50;;;20.30;99.90;;;;;;5051712;28;20197;-32
2022/10/22 11:47:52;;;;;;;6.07;1.33;;;20.30;99.90;;;;;;5051899;28;20220;-32
2022/10/22 11:50:42;;;;;;;4.28;1.50;;;20.30;99.90;;;;;;5051638;28;20712;-34
2022/10/22 11:53:14;;;;;;;9.65;1.63;;;20.40;99.90;;;;;;5052100;28;20231;-32
2022/10/22 11:55:54;;;;;;;9.60;1.77;;;20.40;99.90;;;;;;5051851;28;20673;-32
2022/10/22 11:58:27;;;;;;;4.05;1.20;;;20.50;99.90;;;;;;5051601;28;20302;-32
2022/10/22 12:01:08;;;;;;;3.60;1.05;;;20.50;99.90;;;;;;5052294;28;20204;-32
2022/10/22 12:03:42;;;;;;;7.97;1.75;;;20.50;99.90;;;;;;5051545;28;20206;-32
2022/10/22 12:06:10;;;;;;;9.05;1.23;;;20.50;99.90;;;;;;5051761;28;20191;-32
2022/10/22 12:08:53;;;;;;;4.85;1.35;;;20.50;99.90;;;;;;5051156;28;20278;-32
2022/10/22 12:11:39;;;;;;;5.78;1.23;;;20.50;99.90;;;;;;5051140;28;20202;-32
2022/10/22 12:14:33;;;;;;;3.55;1.10;;;20.40;99.90;;;;;;5051277;28;20211;-32
2022/10/22 12:17:11;;;;;;;5.35;1.52;;;20.40;99.90;;;;;;5051138;28;20185;-32
2022/10/22 12:19:42;;;;;;;5.82;1.25;;;20.40;99.90;;;;;;5051044;28;20240;-33
2022/10/22 12:22:18;;;;;;;4.93;1.20;;;20.40;99.90;;;;;;5050936;28;20210;-32
2022/10/22 12:24:51;;;;;;;3.83;1.27;;;20.40;99.90;;;;;;5050009;28;20200;-32
2022/10/22 12:27:34;;;;;;;4.47;1.30;;;20.40;99.90;;;;;;5051136;28;20303;-32
2022/10/22 12:30:16;;;;;;;5.22;1.33;;;20.40;99.90;;;;;;5051221;28;20544;-32
2022/10/22 12:32:43;;;;;;;2.63;0.90;;;20.40;99.90;;;;;;5051278;28;20627;-32
2022/10/22 12:35:17;;;;;;;3.93;1.00;;;20.40;99.90;;;;;;5050388;28;20196;-32
2022/10/22 12:37:47;;;;;;;4.10;1.00;;;20.50;99.90;;;;;;5050362;28;20756;-33
2022/10/22 12:40:23;;;;;;;4.90;1.23;;;20.50;99.90;;;;;;5050665;28;20572;-32
2022/10/22 12:42:52;;;;;;;4.13;1.15;;;20.50;99.90;;;;;;5050591;28;20192;-32
2022/10/22 12:45:20;;;;;;;3.03;1.42;;;20.50;99.90;;;;;;5050061;28;20283;-32
2022/10/22 12:47:54;;;;;;;4.60;1.23;;;20.50;99.90;;;;;;5050474;28;20212;-32
2022/10/22 12:50:30;;;;;;;4.93;1.10;;;20.50;99.90;;;;;;5049810;28;20196;-32
2022/10/22 12:52:58;;;;;;;5.88;0.95;;;20.50;99.90;;;;;;5048827;28;20196;-32
2022/10/22 12:55:28;;;;;;;4.65;1.08;;;20.50;99.90;;;;;;5049844;28;20200;-33
2022/10/22 12:57:55;;;;;;;2.40;0.93;;;20.50;99.90;;;;;;5050126;28;20226;-32
2022/10/22 13:00:32;;;;;;;5.05;1.38;;;20.50;99.90;;;;;;5049852;28;20216;-32
2022/10/22 13:03:04;;;;;;;2.45;0.98;;;20.50;99.90;;;;;;5049539;28;20507;-32
2022/10/22 13:05:38;;;;;;;4.35;1.08;;;20.50;99.90;;;;;;5048504;28;20246;-32
2022/10/22 13:08:09;;;;;;;5.10;1.10;;;20.50;99.90;;;;;;5049711;28;20710;-32
2022/10/22 13:10:47;;;;;;;5.27;1.27;;;20.60;99.90;;;;;;5049518;28;20192;-32
2022/10/22 13:13:30;;;;;;;4.30;1.30;;;20.50;99.90;;;;;;5049911;28;20181;-32
2022/10/22 13:16:16;;;;;;;4.25;0.88;;;20.60;99.90;;;;;;5049747;28;20619;-32